createdAt,value
2017-02-06T17:18:44.541Z,94.27
2017-02-06T17:19:45.228Z,94.23
2017-02-06T17:20:45.887Z,93.61
2017-02-06T17:21:46.615Z,93.89
2017-02-06T17:22:48.006Z,94.27
2017-02-06T17:23:48.681Z,94.65
2017-02-06T17:24:49.345Z,94.51
2017-02-06T17:25:50.017Z,94.84
2017-02-06T17:26:51.183Z,94.65
2017-02-06T17:27:53.302Z,94.18
2017-02-06T17:28:54.158Z,94.56
2017-02-06T17:29:54.823Z,94.46
2017-02-06T17:30:55.524Z,94.56
2017-02-06T17:31:56.252Z,94.65
2017-02-06T17:32:56.936Z,94.46
2017-02-06T17:33:57.636Z,94.93
2017-02-06T17:34:58.349Z,95.12
2017-02-06T17:35:59.027Z,95.03
2017-02-06T17:36:59.724Z,95.03
2017-02-06T17:38:00.445Z,95.4
2017-02-06T17:39:01.173Z,95.5
2017-02-06T17:40:01.874Z,95.12
2017-02-06T17:41:02.574Z,95.12
2017-02-06T17:42:03.309Z,95.31
2017-02-06T17:43:04.095Z,95.5
2017-02-06T17:44:04.862Z,95.78
2017-02-06T17:45:05.881Z,95.31
2017-02-06T17:46:06.624Z,96.07
2017-02-06T17:47:07.296Z,95.59
2017-02-06T17:48:07.998Z,95.5
2017-02-06T17:49:08.831Z,95.69
2017-02-06T17:50:09.539Z,96.35
2017-02-06T17:51:10.248Z,96.54
2017-02-06T17:52:10.906Z,96.45
2017-02-06T17:53:11.604Z,96.26
2017-02-06T17:54:12.291Z,96.45
2017-02-06T17:55:12.970Z,96.54
2017-02-06T17:56:13.685Z,96.92
2017-02-06T17:57:14.377Z,96.83
2017-02-06T17:58:15.067Z,96.54
2017-02-06T17:59:15.985Z,96.73
2017-02-06T18:00:16.704Z,96.83
2017-02-06T18:01:17.400Z,97.02
2017-02-06T18:02:18.081Z,97.49
2017-02-06T18:03:18.952Z,97.39
2017-02-06T18:04:19.627Z,97.49
2017-02-06T18:05:20.363Z,97.58
2017-02-06T18:06:21.048Z,97.77
2017-02-06T18:07:22.071Z,97.58
2017-02-06T18:08:22.749Z,97.58
2017-02-06T18:09:25.080Z,97.58
2017-02-06T18:10:27.031Z,97.58
2017-02-06T18:11:28.339Z,97.68
2017-02-06T18:12:29.034Z,97.49
2017-02-06T18:13:29.799Z,97.68
2017-02-06T18:14:30.476Z,97.87
2017-02-06T18:15:31.210Z,97.68
2017-02-06T18:16:32.237Z,97.39
2017-02-06T18:17:34.275Z,98.15
2017-02-06T18:18:35.375Z,97.96
2017-02-06T18:19:36.097Z,98.25
2017-02-06T18:20:36.799Z,98.15
2017-02-06T18:21:37.486Z,98.06
2017-02-06T18:22:38.190Z,97.96
2017-02-06T18:23:38.866Z,98.06
2017-02-06T18:24:39.572Z,97.96
2017-02-06T18:25:40.267Z,98.06
2017-02-06T18:26:40.961Z,98.06
2017-02-06T18:27:41.626Z,97.87
2017-02-06T18:28:42.383Z,98.44
2017-02-06T18:29:43.059Z,97.87
2017-02-06T18:30:43.735Z,97.96
2017-02-06T18:31:44.400Z,97.96
2017-02-06T18:32:45.137Z,98.15
2017-02-06T18:33:45.877Z,98.06
2017-02-06T18:34:46.588Z,98.06
2017-02-06T18:35:47.278Z,98.34
2017-02-06T18:36:47.951Z,97.96
2017-02-06T18:37:48.611Z,98.15
2017-02-06T18:38:49.306Z,97.91
2017-02-06T18:39:50.154Z,97.96
2017-02-06T18:40:50.837Z,98.48
2017-02-06T18:41:51.693Z,97.72
2017-02-06T18:42:52.402Z,97.58
2017-02-06T18:43:53.067Z,97.39
2017-02-06T18:44:53.838Z,97.68
2017-02-06T18:45:54.519Z,97.39
2017-02-06T18:46:55.193Z,97.53
2017-02-06T18:47:55.862Z,97.72
2017-02-06T18:48:56.527Z,97.91
2017-02-06T18:49:57.207Z,97.53
2017-02-06T18:50:57.889Z,97.63
2017-02-06T18:51:58.570Z,97.25
2017-02-06T18:52:59.270Z,96.88
2017-02-06T18:53:59.926Z,97.16
2017-02-06T18:55:00.590Z,96.78
2017-02-06T18:56:01.256Z,96.97
2017-02-06T18:57:01.923Z,96.97
2017-02-06T18:58:02.618Z,97.3
2017-02-06T18:59:03.319Z,97.16
2017-02-06T19:00:04.434Z,96.97
2017-02-06T19:01:05.394Z,97.3
2017-02-06T19:02:06.141Z,97.39
2017-02-06T19:03:06.832Z,96.78
2017-02-06T19:04:07.630Z,97.39
2017-02-06T19:05:10.142Z,96.88
2017-02-06T19:06:11.242Z,97.11
2017-02-06T19:07:11.945Z,96.78
2017-02-06T19:08:13.155Z,96.88
2017-02-06T19:09:13.890Z,96.78
2017-02-06T19:10:14.608Z,96.88
2017-02-06T19:11:15.275Z,96.78
2017-02-06T19:12:15.948Z,96.78
2017-02-06T19:13:16.625Z,96.64
2017-02-06T19:14:17.331Z,96.31
2017-02-06T19:15:18.300Z,96.59
2017-02-06T19:16:19.028Z,96.78
2017-02-06T19:17:19.739Z,96.59
2017-02-06T19:18:20.718Z,96.69
2017-02-06T19:19:21.387Z,96.4
2017-02-06T19:20:22.054Z,96.59
2017-02-06T19:21:22.741Z,96.64
2017-02-06T19:22:23.398Z,96.54
2017-02-06T19:23:24.260Z,96.69
2017-02-06T19:24:24.953Z,96.78
2017-02-06T19:25:25.886Z,96.97
2017-02-06T19:26:26.564Z,96.78
2017-02-06T19:27:27.240Z,97.02
2017-02-06T19:28:28.009Z,97.16
2017-02-06T19:29:28.698Z,96.59
2017-02-06T19:30:29.365Z,96.88
2017-02-06T19:31:30.113Z,97.25
2017-02-06T19:32:30.782Z,96.97
2017-02-06T19:33:31.488Z,96.88
2017-02-06T19:34:32.166Z,96.97
2017-02-06T19:35:32.837Z,96.97
2017-02-06T19:36:33.543Z,96.97
2017-02-06T19:37:34.202Z,96.59
2017-02-06T19:38:34.999Z,96.97
2017-02-06T19:39:35.849Z,97.16
2017-02-06T19:40:36.652Z,96.88
2017-02-06T19:41:37.365Z,96.78
2017-02-06T19:42:38.002Z,97.06
2017-02-06T19:43:38.678Z,96.78
2017-02-06T19:44:39.365Z,97.25
2017-02-06T19:45:40.039Z,97.82
2017-02-06T19:46:40.770Z,97.53
2017-02-06T19:47:41.470Z,97.58
2017-02-06T19:48:42.137Z,97.82
2017-02-06T19:49:42.820Z,97.25
2017-02-06T19:50:43.531Z,97.91
2017-02-06T19:51:44.188Z,97.82
2017-02-06T19:52:44.861Z,97.16
2017-02-06T19:53:45.625Z,97.34
2017-02-06T19:54:46.308Z,97.34
2017-02-06T19:55:47.021Z,97.91
2017-02-06T19:56:47.710Z,97.63
2017-02-06T19:57:48.377Z,97.53
2017-02-06T19:58:49.065Z,97.25
2017-02-06T19:59:49.756Z,97.53
2017-02-06T20:00:50.426Z,97.63
2017-02-06T20:01:51.090Z,97.63
2017-02-06T20:02:51.799Z,97.25
2017-02-06T20:03:52.474Z,97.96
2017-02-06T20:04:53.157Z,97.53
2017-02-06T20:05:53.834Z,97.87
2017-02-06T20:06:54.521Z,97.72
2017-02-06T20:07:55.230Z,97.53
2017-02-06T20:08:55.903Z,97.72
2017-02-06T20:09:56.625Z,97.63
2017-02-06T20:10:57.441Z,97.34
2017-02-06T20:11:58.271Z,97.72
2017-02-06T20:12:59.141Z,97.53
2017-02-06T20:13:59.982Z,97.44
2017-02-06T20:15:01.198Z,97.68
2017-02-06T20:16:01.888Z,97.49
2017-02-06T20:17:03.007Z,97.49
2017-02-06T20:18:04.079Z,97.77
2017-02-06T20:19:05.158Z,97.77
2017-02-06T20:20:06.217Z,97.3
2017-02-06T20:21:07.406Z,97.2
2017-02-06T20:22:08.419Z,97.58
2017-02-06T20:23:09.317Z,97.58
2017-02-06T20:24:10.207Z,97.87
2017-02-06T20:25:11.162Z,97.58
2017-02-06T20:26:12.805Z,97.58
2017-02-06T20:27:14.113Z,97.58
2017-02-06T20:28:15.000Z,97.96
2017-02-06T20:29:15.895Z,97.77
2017-02-06T20:30:16.744Z,97.3
2017-02-06T20:31:17.470Z,97.58
2017-02-06T20:32:18.183Z,97.77
2017-02-06T20:33:19.177Z,97.77
2017-02-06T20:34:20.190Z,97.96
2017-02-06T20:35:21.037Z,98.15
2017-02-06T20:36:21.835Z,97.87
2017-02-06T20:37:22.763Z,98.15
2017-02-06T20:38:23.712Z,98.25
2017-02-06T20:39:24.507Z,97.87
2017-02-06T20:40:25.581Z,98.25
2017-02-06T20:41:26.411Z,98.15
2017-02-06T20:42:28.084Z,98.06
2017-02-06T20:43:29.737Z,98.06
2017-02-06T20:44:31.204Z,98.44
2017-02-06T20:45:33.049Z,97.96
2017-02-06T20:46:34.801Z,98.15
2017-02-06T20:47:35.979Z,97.68
2017-02-06T20:48:36.826Z,97.58
2017-02-06T20:49:37.641Z,97.58
2017-02-06T20:50:38.303Z,97.58
2017-02-06T20:51:39.010Z,97.77
2017-02-06T20:52:39.753Z,97.58
2017-02-06T20:53:40.514Z,97.3
2017-02-06T20:54:41.254Z,97.39
2017-02-06T20:55:41.994Z,98.25
2017-02-06T20:56:42.771Z,97.58
2017-02-06T20:57:43.548Z,98.15
2017-02-06T20:58:44.358Z,98.15
2017-02-06T20:59:45.010Z,98.15
2017-02-06T21:00:45.758Z,97.96
2017-02-06T21:01:46.608Z,98.06
2017-02-06T21:02:47.306Z,97.96
2017-02-06T21:03:47.989Z,97.96
2017-02-06T21:04:48.676Z,98.15
2017-02-06T21:05:49.371Z,98.06
2017-02-06T21:06:50.072Z,97.96
2017-02-06T21:07:50.768Z,98.25
2017-02-06T21:08:51.479Z,98.15
2017-02-06T21:09:52.235Z,98.25
2017-02-06T21:10:52.950Z,97.87
2017-02-06T21:11:53.867Z,98.06
2017-02-06T21:12:54.590Z,97.87
2017-02-06T21:13:55.280Z,97.87
2017-02-06T21:14:55.983Z,98.06
2017-02-06T21:15:56.893Z,98.44
2017-02-06T21:16:57.613Z,98.53
2017-02-06T21:17:58.383Z,98.44
2017-02-06T21:18:59.104Z,98.25
2017-02-06T21:19:59.806Z,98.44
2017-02-06T21:21:00.487Z,98.25
2017-02-06T21:22:01.170Z,98.25
2017-02-06T21:23:01.864Z,98.63
2017-02-06T21:24:02.615Z,98.25
2017-02-06T21:25:03.308Z,98.72
2017-02-06T21:26:04.132Z,98.15
2017-02-06T21:27:04.805Z,98.06
2017-02-06T21:28:05.500Z,98.25
2017-02-06T21:29:06.194Z,98.25
2017-02-06T21:30:06.937Z,98.25
2017-02-06T21:31:07.658Z,98.06
2017-02-06T21:32:08.324Z,98.44
2017-02-06T21:33:09.035Z,98.25
2017-02-06T21:34:09.860Z,98.82
2017-02-06T21:35:10.617Z,98.63
2017-02-06T21:36:11.794Z,98.63
2017-02-06T21:37:12.678Z,98.82
2017-02-06T21:38:13.418Z,98.72
2017-02-06T21:39:14.144Z,98.82
2017-02-06T21:40:14.970Z,98.63
2017-02-06T21:41:15.844Z,98.82
2017-02-06T21:42:16.523Z,99.01
2017-02-06T21:43:17.200Z,98.72
2017-02-06T21:44:17.902Z,98.53
2017-02-06T21:45:18.685Z,98.63
2017-02-06T21:46:19.442Z,98.06
2017-02-06T21:47:20.133Z,98.44
2017-02-06T21:48:20.795Z,98.25
2017-02-06T21:49:21.534Z,98.15
2017-02-06T21:50:22.234Z,98.72
2017-02-06T21:51:22.931Z,98.63
2017-02-06T21:52:23.668Z,98.82
2017-02-06T21:53:24.327Z,98.72
2017-02-06T21:54:25.020Z,98.72
2017-02-06T21:55:25.713Z,98.72
2017-02-06T21:56:26.417Z,98.82
2017-02-06T21:57:27.074Z,98.82
2017-02-06T21:58:27.764Z,99.01
2017-02-06T21:59:28.501Z,98.15
2017-02-06T22:00:29.230Z,98.06
2017-02-06T22:01:29.880Z,98.34
2017-02-06T22:02:30.550Z,98.91
2017-02-06T22:03:31.234Z,98.91
2017-02-06T22:04:31.935Z,98.91
2017-02-06T22:05:32.653Z,98.53
2017-02-06T22:06:33.481Z,98.91
2017-02-06T22:07:34.146Z,98.63
2017-02-06T22:08:34.851Z,98.06
2017-02-06T22:09:35.545Z,98.15
2017-02-06T22:10:36.258Z,98.25
2017-02-06T22:11:37.006Z,98.25
2017-02-06T22:12:37.685Z,98.44
2017-02-06T22:13:38.388Z,98.06
2017-02-06T22:14:39.132Z,98.15
2017-02-06T22:15:39.884Z,98.44
2017-02-06T22:16:40.572Z,97.96
2017-02-06T22:17:41.326Z,98.25
2017-02-06T22:18:42.031Z,97.96
2017-02-06T22:19:42.750Z,98.44
2017-02-06T22:20:43.479Z,98.82
2017-02-06T22:21:44.326Z,98.72
2017-02-06T22:22:45.017Z,99.29
2017-02-06T22:23:45.699Z,99.38
2017-02-06T22:24:46.369Z,98.72
2017-02-06T22:25:47.134Z,98.72
2017-02-06T22:26:47.856Z,98.91
2017-02-06T22:27:48.706Z,98.72
2017-02-06T22:28:49.404Z,98.53
2017-02-06T22:29:50.098Z,98.15
2017-02-06T22:30:50.834Z,98.63
2017-02-06T22:31:51.574Z,98.15
2017-02-06T22:32:52.504Z,98.72
2017-02-06T22:33:53.323Z,98.06
2017-02-06T22:34:53.998Z,98.06
2017-02-06T22:35:54.685Z,98.63
2017-02-06T22:36:55.364Z,98.53
2017-02-06T22:37:56.049Z,99.38
2017-02-06T22:38:56.779Z,99.19
2017-02-06T22:39:57.462Z,99.38
2017-02-06T22:40:58.156Z,99.29
2017-02-06T22:41:58.840Z,99.1
2017-02-06T22:42:59.529Z,98.72
2017-02-06T22:44:00.244Z,99.1
2017-02-06T22:45:00.987Z,99.29
2017-02-06T22:46:01.762Z,99.1
2017-02-06T22:47:02.612Z,99.19
2017-02-06T22:48:03.286Z,99.1
2017-02-06T22:49:04.124Z,99.57
2017-02-06T22:50:04.964Z,99.19
2017-02-06T22:51:05.837Z,99.29
2017-02-06T22:52:06.513Z,99.48
2017-02-06T22:53:07.377Z,99.01
2017-02-06T22:54:08.116Z,99.19
2017-02-06T22:55:08.807Z,98.91
2017-02-06T22:56:09.662Z,98.91
2017-02-06T22:57:10.409Z,99.38
2017-02-06T22:58:11.222Z,98.91
2017-02-06T22:59:12.141Z,99.29
2017-02-06T23:00:12.816Z,99.01
2017-02-06T23:01:13.641Z,99.38
2017-02-06T23:02:14.498Z,99.38
2017-02-06T23:03:15.244Z,99.29
2017-02-06T23:04:16.030Z,98.91
2017-02-06T23:05:16.806Z,99.29
2017-02-06T23:06:17.492Z,98.82
2017-02-06T23:07:18.167Z,98.91
2017-02-06T23:08:18.838Z,98.82
2017-02-06T23:09:19.499Z,98.63
2017-02-06T23:10:20.435Z,98.82
2017-02-06T23:11:21.624Z,99.1
2017-02-06T23:12:22.322Z,99.1
2017-02-06T23:13:23.038Z,99.66
2017-02-06T23:14:23.828Z,99.66
2017-02-06T23:15:24.547Z,99.29
2017-02-06T23:16:25.314Z,99.38
2017-02-06T23:17:26.053Z,99.38
2017-02-06T23:18:26.920Z,99.19
2017-02-06T23:19:27.941Z,99.57
2017-02-06T23:20:28.800Z,98.72
2017-02-06T23:21:29.852Z,99.1
2017-02-06T23:22:30.867Z,98.72
2017-02-06T23:23:32.200Z,99.01
2017-02-06T23:24:33.214Z,99.29
2017-02-06T23:25:34.173Z,98.82
2017-02-06T23:26:35.017Z,98.63
2017-02-06T23:27:36.080Z,99.01
2017-02-06T23:28:37.507Z,99.01
2017-02-06T23:29:38.248Z,99.01
2017-02-06T23:30:38.946Z,99.29
2017-02-06T23:31:39.817Z,98.53
2017-02-06T23:32:40.704Z,99.19
2017-02-06T23:33:41.508Z,99.1
2017-02-06T23:34:42.507Z,99.19
2017-02-06T23:35:43.770Z,99.57
2017-02-06T23:36:45.010Z,99.38
2017-02-06T23:37:45.724Z,99.95
2017-02-06T23:38:46.636Z,99.19
2017-02-06T23:39:47.716Z,99.38
2017-02-06T23:40:48.448Z,99.57
2017-02-06T23:41:49.156Z,99.19
2017-02-06T23:42:49.965Z,99.48
2017-02-06T23:43:50.889Z,99.8
2017-02-06T23:44:51.702Z,99.95
2017-02-06T23:45:52.396Z,99.85
2017-02-06T23:46:53.109Z,99.76
2017-02-06T23:47:53.935Z,99.95
2017-02-06T23:48:54.608Z,99.66
2017-02-06T23:49:55.326Z,99.66
2017-02-06T23:50:56.031Z,99.9
2017-02-06T23:51:56.711Z,99.66
2017-02-06T23:52:57.392Z,99.85
2017-02-06T23:53:58.410Z,99.95
2017-02-06T23:54:59.061Z,99.8
2017-02-06T23:56:00.014Z,99.99
2017-02-06T23:57:00.766Z,99.71
2017-02-06T23:58:01.469Z,99.66
2017-02-06T23:59:02.275Z,99.66
